createdAt,value
2024-02-17T00:03:30.268Z,100.00
2024-02-17T00:08:32.166Z,100.00
2024-02-17T00:13:38.355Z,100.00
2024-02-17T00:18:40.361Z,100.00
2024-02-17T00:23:45.206Z,100.00
2024-02-17T00:28:47.414Z,100.00
2024-02-17T00:33:54.168Z,100.00
2024-02-17T00:38:56.192Z,100.00
2024-02-17T00:43:58.138Z,100.00
2024-02-17T00:49:02.731Z,100.00
2024-02-17T00:54:04.945Z,100.00
2024-02-17T00:59:07.169Z,100.00
2024-02-17T01:04:09.502Z,100.00
2024-02-17T01:09:15.043Z,100.00
2024-02-17T01:14:22.680Z,100.00
2024-02-17T01:19:24.699Z,100.00
2024-02-17T01:24:26.731Z,100.00
2024-02-17T01:29:30.860Z,100.00
2024-02-17T01:34:35.207Z,100.00
2024-02-17T01:39:39.474Z,100.00
2024-02-17T01:44:43.583Z,100.00
2024-02-17T01:49:48.480Z,100.00
2024-02-17T01:54:51.076Z,100.00
2024-02-17T01:59:58.058Z,100.00
2024-02-17T02:05:02.289Z,100.00
2024-02-17T02:10:07.169Z,100.00
2024-02-17T02:15:14.412Z,100.00
2024-02-17T02:20:17.485Z,100.00
2024-02-17T02:25:26.753Z,100.00
2024-02-17T02:30:28.931Z,100.00
2024-02-17T02:35:30.714Z,100.00
2024-02-17T02:40:32.642Z,100.00
2024-02-17T02:45:35.147Z,100.00
2024-02-17T02:50:37.498Z,100.00
2024-02-17T02:55:41.861Z,100.00
2024-02-17T03:00:46.160Z,100.00
2024-02-17T03:05:50.514Z,100.00
2024-02-17T03:10:52.383Z,100.00
2024-02-17T03:15:58.809Z,100.00
2024-02-17T03:21:00.624Z,100.00
2024-02-17T03:26:02.480Z,100.00
2024-02-17T03:31:06.697Z,100.00
2024-02-17T03:36:08.753Z,100.00
2024-02-17T03:41:10.481Z,100.00
2024-02-17T03:46:15.284Z,100.00
2024-02-17T03:51:19.511Z,100.00
2024-02-17T03:56:21.436Z,100.00
2024-02-17T04:01:25.912Z,100.00
2024-02-17T04:06:31.502Z,100.00
2024-02-17T04:11:35.589Z,100.00
2024-02-17T04:16:37.399Z,100.00
2024-02-17T04:21:39.513Z,100.00
2024-02-17T04:26:43.981Z,100.00
2024-02-17T04:31:45.877Z,100.00
2024-02-17T04:36:47.871Z,100.00
2024-02-17T04:41:49.715Z,100.00
2024-02-17T04:46:51.511Z,100.00
2024-02-17T04:51:55.595Z,100.00
2024-02-17T04:57:00.491Z,100.00
2024-02-17T05:02:02.555Z,100.00
2024-02-17T05:07:06.659Z,100.00
2024-02-17T05:12:11.074Z,100.00
2024-02-17T05:17:16.090Z,100.00
2024-02-17T05:22:20.142Z,100.00
2024-02-17T05:27:24.308Z,100.00
2024-02-17T05:32:28.672Z,100.00
2024-02-17T05:37:39.307Z,100.00
2024-02-17T05:42:45.172Z,100.00
2024-02-17T05:47:47.243Z,100.00
2024-02-17T05:52:50.963Z,100.00
2024-02-17T05:57:55.336Z,100.00
2024-02-17T06:02:58.272Z,100.00
2024-02-17T06:08:00.167Z,100.00
2024-02-17T06:13:06.400Z,100.00
2024-02-17T06:18:27.039Z,100.00
2024-02-17T06:23:29.654Z,100.00
2024-02-17T06:28:35.336Z,100.00
2024-02-17T06:33:39.602Z,100.00
2024-02-17T06:38:43.335Z,100.00
2024-02-17T06:43:45.832Z,100.00
2024-02-17T06:48:52.896Z,100.00
2024-02-17T06:53:58.587Z,100.00
2024-02-17T06:59:00.563Z,100.00
2024-02-17T07:04:05.933Z,100.00
2024-02-17T07:09:08.524Z,100.00
2024-02-17T07:14:13.503Z,100.00
2024-02-17T07:19:19.281Z,100.00
2024-02-17T07:24:24.188Z,100.00
2024-02-17T07:29:26.625Z,100.00
2024-02-17T07:34:29.026Z,100.00
2024-02-17T07:39:31.930Z,100.00
2024-02-17T07:44:37.620Z,100.00
2024-02-17T07:49:40.237Z,100.00
2024-02-17T07:54:44.860Z,100.00
2024-02-17T07:59:47.411Z,100.00
2024-02-17T08:04:49.741Z,100.00
2024-02-17T08:09:51.879Z,100.00
2024-02-17T08:14:56.947Z,100.00
2024-02-17T08:20:01.966Z,100.00
2024-02-17T08:25:10.842Z,100.00
2024-02-17T08:30:16.767Z,100.00
2024-02-17T08:35:24.800Z,100.00
2024-02-17T08:40:27.397Z,100.00
2024-02-17T08:45:30.693Z,100.00
2024-02-17T08:50:35.171Z,100.00
2024-02-17T08:55:38.086Z,100.00
2024-02-17T09:00:40.753Z,100.00
2024-02-17T09:05:45.914Z,100.00
2024-02-17T09:10:51.082Z,100.00
2024-02-17T09:15:53.386Z,100.00
2024-02-17T09:20:58.099Z,100.00
2024-02-17T09:26:03.828Z,100.00
2024-02-17T09:31:07.231Z,100.00
2024-02-17T09:36:09.725Z,100.00
2024-02-17T09:41:12.288Z,100.00
2024-02-17T09:46:14.774Z,100.00
2024-02-17T09:51:20.944Z,100.00
2024-02-17T09:56:26.146Z,100.00
2024-02-17T10:01:29.144Z,100.00
2024-02-17T10:06:34.406Z,100.00
2024-02-17T10:11:37.986Z,100.00
2024-02-17T10:16:40.985Z,100.00
2024-02-17T10:21:43.978Z,100.00
2024-02-17T10:26:52.235Z,100.00
2024-02-17T10:31:54.364Z,100.00
2024-02-17T10:36:57.328Z,100.00
2024-02-17T10:42:02.111Z,100.00
2024-02-17T10:47:04.207Z,100.00
2024-02-17T10:52:12.410Z,100.00
2024-02-17T10:57:15.784Z,100.00
2024-02-17T11:02:19.976Z,100.00
2024-02-17T11:07:24.957Z,100.00
2024-02-17T11:12:30.450Z,100.00
2024-02-17T11:23:02.078Z,100.00
2024-02-17T11:28:19.163Z,100.00
2024-02-17T11:33:28.535Z,100.00
2024-02-17T11:38:32.096Z,100.00
2024-02-17T11:43:37.480Z,100.00
2024-02-17T11:48:41.982Z,100.00
2024-02-17T11:53:47.278Z,100.00
2024-02-17T11:58:54.773Z,100.00
2024-02-17T12:03:58.739Z,100.00
2024-02-17T12:09:01.447Z,100.00
2024-02-17T12:14:04.426Z,100.00
2024-02-17T12:19:11.143Z,100.00
2024-02-17T12:24:15.731Z,100.00
2024-02-17T12:29:20.585Z,100.00
2024-02-17T12:34:33.740Z,100.00
2024-02-17T12:39:38.436Z,100.00
2024-02-17T12:44:41.830Z,100.00
2024-02-17T12:49:43.998Z,100.00
2024-02-17T12:54:46.454Z,100.00
2024-02-17T12:59:48.496Z,100.00
2024-02-17T13:04:50.295Z,100.00
2024-02-17T13:09:55.981Z,100.00
2024-02-17T13:15:00.642Z,100.00
2024-02-17T13:20:06.135Z,100.00
2024-02-17T13:25:08.450Z,90.97
2024-02-17T13:30:14.746Z,80.80
2024-02-17T13:35:20.613Z,69.98
2024-02-17T13:40:25.529Z,68.82
2024-02-17T13:45:27.442Z,63.79
2024-02-17T13:50:29.973Z,58.69
2024-02-17T13:55:36.815Z,56.50
2024-02-17T14:00:44.942Z,59.98
2024-02-17T14:05:52.042Z,56.98
2024-02-17T14:10:54.256Z,58.00
2024-02-17T14:15:56.336Z,55.46
2024-02-17T14:21:06.427Z,57.34
2024-02-17T14:26:09.058Z,56.37
2024-02-17T14:31:11.093Z,56.47
2024-02-17T14:36:13.714Z,57.50
2024-02-17T14:41:18.026Z,56.24
2024-02-17T14:46:22.488Z,58.68
2024-02-17T14:51:24.707Z,55.26
2024-02-17T14:56:26.852Z,57.76
2024-02-17T15:01:29.169Z,62.56
2024-02-17T15:06:31.730Z,67.71
2024-02-17T15:11:34.439Z,76.45
2024-02-17T15:16:36.984Z,88.59
2024-02-17T15:21:38.905Z,100.00
2024-02-17T15:26:41.010Z,100.00
2024-02-17T15:31:45.355Z,100.00
2024-02-17T15:36:49.635Z,100.00
2024-02-17T15:41:52.860Z,100.00
2024-02-17T15:46:59.503Z,100.00
2024-02-17T15:52:04.276Z,100.00
2024-02-17T15:57:06.492Z,100.00
2024-02-17T16:02:11.000Z,100.00
2024-02-17T16:07:16.053Z,100.00
2024-02-17T16:12:19.689Z,100.00
2024-02-17T16:17:22.813Z,100.00
2024-02-17T16:22:24.939Z,100.00
2024-02-17T16:27:27.425Z,100.00
2024-02-17T16:32:29.706Z,100.00
2024-02-17T16:37:34.585Z,100.00
2024-02-17T16:42:37.733Z,100.00
2024-02-17T16:47:41.775Z,100.00
2024-02-17T16:52:43.829Z,100.00
2024-02-17T16:57:46.206Z,100.00
2024-02-17T17:02:48.019Z,100.00
2024-02-17T17:07:49.865Z,100.00
2024-02-17T17:12:51.751Z,100.00
2024-02-17T17:17:53.654Z,100.00
2024-02-17T17:22:57.996Z,100.00
2024-02-17T17:27:59.909Z,100.00
2024-02-17T17:33:04.468Z,100.00
2024-02-17T17:38:08.586Z,100.00
2024-02-17T17:43:11.561Z,100.00
2024-02-17T17:48:16.490Z,100.00
2024-02-17T17:53:18.846Z,100.00
2024-02-17T17:58:20.711Z,100.00
2024-02-17T18:03:24.322Z,100.00
2024-02-17T18:08:27.812Z,100.00
2024-02-17T18:13:29.897Z,100.00
2024-02-17T18:18:32.655Z,100.00
2024-02-17T18:23:42.448Z,100.00
2024-02-17T18:28:45.176Z,100.00
2024-02-17T18:33:49.885Z,100.00
2024-02-17T18:38:52.174Z,100.00
2024-02-17T18:43:57.813Z,100.00
2024-02-17T18:48:59.749Z,100.00
2024-02-17T18:54:05.448Z,100.00
2024-02-17T18:59:10.209Z,100.00
2024-02-17T19:04:13.759Z,100.00
2024-02-17T19:09:15.761Z,100.00
2024-02-17T19:14:17.640Z,100.00
2024-02-17T19:19:21.950Z,100.00
2024-02-17T19:24:27.835Z,100.00
2024-02-17T19:29:29.935Z,100.00
2024-02-17T19:34:34.248Z,100.00
2024-02-17T19:39:36.902Z,100.00
2024-02-17T19:44:42.149Z,100.00
2024-02-17T19:49:44.249Z,100.00
2024-02-17T19:54:48.700Z,100.00
2024-02-17T19:59:50.711Z,100.00
2024-02-17T20:04:52.934Z,100.00
2024-02-17T20:09:57.254Z,100.00
2024-02-17T20:14:59.277Z,100.00
2024-02-17T20:20:02.490Z,100.00
2024-02-17T20:25:14.498Z,100.00
2024-02-17T20:30:16.892Z,100.00
2024-02-17T20:35:21.382Z,100.00
2024-02-17T20:40:28.466Z,100.00
2024-02-17T20:45:30.796Z,100.00
2024-02-17T20:50:35.189Z,100.00
2024-02-17T20:55:40.370Z,100.00
2024-02-17T21:00:42.353Z,100.00
2024-02-17T21:05:49.475Z,100.00
2024-02-17T21:10:53.939Z,100.00
2024-02-17T21:15:55.936Z,100.00
2024-02-17T21:20:57.889Z,100.00
2024-02-17T21:26:02.341Z,100.00
2024-02-17T21:31:07.316Z,100.00
2024-02-17T21:36:11.257Z,100.00
2024-02-17T21:41:13.490Z,100.00
2024-02-17T21:46:17.796Z,100.00
2024-02-17T21:51:19.773Z,100.00
2024-02-17T21:56:21.667Z,100.00
2024-02-17T22:01:26.019Z,100.00
2024-02-17T22:06:30.014Z,100.00
2024-02-17T22:11:31.958Z,100.00
2024-02-17T22:16:35.350Z,100.00
2024-02-17T22:21:40.105Z,100.00
2024-02-17T22:26:44.464Z,100.00
2024-02-17T22:31:48.752Z,100.00
2024-02-17T22:36:50.543Z,100.00
2024-02-17T22:41:56.322Z,100.00
2024-02-17T22:46:58.533Z,100.00
2024-02-17T22:52:00.528Z,100.00
2024-02-17T22:57:02.845Z,100.00
2024-02-17T23:02:04.714Z,100.00
2024-02-17T23:07:07.323Z,100.00
2024-02-17T23:12:11.418Z,100.00
2024-02-17T23:17:13.464Z,100.00
2024-02-17T23:22:15.335Z,100.00
2024-02-17T23:27:18.193Z,100.00
2024-02-17T23:32:20.238Z,100.00
2024-02-17T23:37:25.069Z,100.00
2024-02-17T23:42:26.943Z,100.00
2024-02-17T23:47:30.973Z,100.00
2024-02-17T23:52:38.642Z,100.00
2024-02-17T23:57:40.939Z,100.00
